createdAt,value
2023-08-12T00:00:01.708Z,96.77
2023-08-12T00:00:33.811Z,96.49
2023-08-12T00:01:05.944Z,96.54
2023-08-12T00:01:38.011Z,96.46
2023-08-12T00:02:10.030Z,96.55
2023-08-12T00:02:42.596Z,96.80
2023-08-12T00:03:14.866Z,96.48
2023-08-12T00:03:47.141Z,95.96
2023-08-12T00:04:19.219Z,96.05
2023-08-12T00:04:51.229Z,96.43
2023-08-12T00:05:23.454Z,96.65
2023-08-12T00:05:55.633Z,96.90
2023-08-12T00:06:27.693Z,96.62
2023-08-12T00:06:59.684Z,96.35
2023-08-12T00:07:31.724Z,96.31
2023-08-12T00:08:04.153Z,96.61
2023-08-12T00:08:36.192Z,96.77
2023-08-12T00:09:08.506Z,96.80
2023-08-12T00:09:40.551Z,96.68
2023-08-12T00:10:14.016Z,96.97
2023-08-12T00:10:46.025Z,97.01
2023-08-12T00:11:19.414Z,97.02
2023-08-12T00:11:51.383Z,97.00
2023-08-12T00:12:23.614Z,97.19
2023-08-12T00:12:55.605Z,96.64
2023-08-12T00:13:27.634Z,97.32
2023-08-12T00:13:59.671Z,97.50
2023-08-12T00:14:31.689Z,97.56
2023-08-12T00:15:04.796Z,97.45
2023-08-12T00:15:36.889Z,97.26
2023-08-12T00:16:09.003Z,96.86
2023-08-12T00:16:41.044Z,97.25
2023-08-12T00:17:13.232Z,96.79
2023-08-12T00:17:45.395Z,96.68
2023-08-12T00:18:17.500Z,97.03
2023-08-12T00:18:49.477Z,97.07
2023-08-12T00:19:21.604Z,97.18
2023-08-12T00:19:53.654Z,97.22
2023-08-12T00:20:25.713Z,96.94
2023-08-12T00:20:57.785Z,96.76
2023-08-12T00:21:29.853Z,97.31
2023-08-12T00:22:01.927Z,97.27
2023-08-12T00:22:34.045Z,97.06
2023-08-12T00:23:06.412Z,97.06
2023-08-12T00:23:39.968Z,96.65
2023-08-12T00:24:12.114Z,96.69
2023-08-12T00:24:44.271Z,96.74
2023-08-12T00:25:16.612Z,97.07
2023-08-12T00:25:50.937Z,97.09
2023-08-12T00:26:24.401Z,97.46
2023-08-12T00:26:56.461Z,97.85
2023-08-12T00:27:28.652Z,98.15
2023-08-12T00:28:00.707Z,98.49
2023-08-12T00:28:33.219Z,98.01
2023-08-12T00:29:05.230Z,98.62
2023-08-12T00:29:37.599Z,98.29
2023-08-12T00:30:10.132Z,98.39
2023-08-12T00:30:42.143Z,98.01
2023-08-12T00:31:14.174Z,97.92
2023-08-12T00:31:46.296Z,97.60
2023-08-12T00:32:18.364Z,97.75
2023-08-12T00:32:50.492Z,97.71
2023-08-12T00:33:22.621Z,97.66
2023-08-12T00:33:54.590Z,97.57
2023-08-12T00:34:26.700Z,97.90
2023-08-12T00:34:58.751Z,97.78
2023-08-12T00:35:30.831Z,97.77
2023-08-12T00:36:03.016Z,97.68
2023-08-12T00:36:35.076Z,97.37
2023-08-12T00:37:07.287Z,97.69
2023-08-12T00:37:39.318Z,97.25
2023-08-12T00:38:11.451Z,96.91
2023-08-12T00:38:43.499Z,96.98
2023-08-12T00:39:15.528Z,96.52
2023-08-12T00:39:47.640Z,96.54
2023-08-12T00:40:19.792Z,96.19
2023-08-12T00:40:51.978Z,96.55
2023-08-12T00:41:25.443Z,96.59
2023-08-12T00:41:57.528Z,96.00
2023-08-12T00:42:29.604Z,96.35
2023-08-12T00:43:01.707Z,96.38
2023-08-12T00:43:33.853Z,96.07
2023-08-12T00:44:06.339Z,96.25
2023-08-12T00:44:38.459Z,96.63
2023-08-12T00:45:11.813Z,96.85
2023-08-12T00:45:44.293Z,96.87
2023-08-12T00:46:16.743Z,96.54
2023-08-12T00:46:49.829Z,96.85
2023-08-12T00:47:22.144Z,96.86
2023-08-12T00:47:54.812Z,97.43
2023-08-12T00:48:27.111Z,97.09
2023-08-12T00:48:59.317Z,96.59
2023-08-12T00:49:33.587Z,96.40
2023-08-12T00:50:06.982Z,96.40
2023-08-12T00:50:41.455Z,96.56
2023-08-12T00:51:13.612Z,96.33
2023-08-12T00:51:47.006Z,96.34
2023-08-12T00:52:19.822Z,96.85
2023-08-12T00:52:52.328Z,96.60
2023-08-12T00:53:24.719Z,97.04
2023-08-12T00:53:59.689Z,96.85
2023-08-12T00:54:31.905Z,96.97
2023-08-12T00:55:04.698Z,96.77
2023-08-12T00:55:37.234Z,96.52
2023-08-12T00:56:09.260Z,96.53
2023-08-12T00:56:43.828Z,96.75
2023-08-12T00:57:16.429Z,96.84
2023-08-12T00:57:49.035Z,96.94
2023-08-12T00:58:21.056Z,97.16
2023-08-12T00:58:53.602Z,97.25
2023-08-12T00:59:27.225Z,97.60
2023-08-12T01:00:00.627Z,97.63
2023-08-12T01:00:33.200Z,97.28
2023-08-12T01:01:05.525Z,97.40
2023-08-12T01:01:41.082Z,97.78
2023-08-12T01:02:13.650Z,97.75
2023-08-12T01:02:47.274Z,97.84
2023-08-12T01:03:19.762Z,97.62
2023-08-12T01:03:53.214Z,97.23
2023-08-12T01:04:25.354Z,97.68
2023-08-12T01:04:57.467Z,96.96
2023-08-12T01:05:31.300Z,97.07
2023-08-12T01:06:04.134Z,97.10
2023-08-12T01:06:36.254Z,97.49
2023-08-12T01:07:08.278Z,97.77
2023-08-12T01:07:40.426Z,97.86
2023-08-12T01:08:12.507Z,98.25
2023-08-12T01:08:47.156Z,98.07
2023-08-12T01:09:19.638Z,97.98
2023-08-12T01:09:51.817Z,98.09
2023-08-12T01:10:28.305Z,98.01
2023-08-12T01:11:17.676Z,97.86
2023-08-12T01:11:58.855Z,98.58
2023-08-12T01:12:38.026Z,98.56
2023-08-12T01:13:20.764Z,98.48
2023-08-12T01:14:00.847Z,98.68
2023-08-12T01:14:43.865Z,98.53
2023-08-12T01:15:21.450Z,98.81
2023-08-12T01:15:56.623Z,98.68
2023-08-12T01:16:33.876Z,98.99
2023-08-12T01:17:10.573Z,98.50
2023-08-12T01:17:44.209Z,98.70
2023-08-12T01:18:17.296Z,98.60
2023-08-12T01:18:51.125Z,98.20
2023-08-12T01:19:31.144Z,98.72
2023-08-12T01:20:04.244Z,98.38
2023-08-12T01:20:37.550Z,98.17
2023-08-12T01:21:16.460Z,98.29
2023-08-12T01:21:54.081Z,99.02
2023-08-12T01:22:28.524Z,98.80
2023-08-12T01:23:11.374Z,98.70
2023-08-12T01:23:43.635Z,98.90
2023-08-12T01:24:15.674Z,99.28
2023-08-12T01:24:47.860Z,99.27
2023-08-12T01:25:20.033Z,99.54
2023-08-12T01:25:52.019Z,99.13
2023-08-12T01:26:24.082Z,99.55
2023-08-12T01:26:56.214Z,99.81
2023-08-12T01:27:28.232Z,99.75
2023-08-12T01:28:00.277Z,100.00
2023-08-12T01:28:32.310Z,100.00
2023-08-12T01:29:04.768Z,100.00
2023-08-12T01:29:40.729Z,100.00
2023-08-12T01:30:13.687Z,99.99
2023-08-12T01:30:54.261Z,100.00
2023-08-12T01:31:35.068Z,100.00
2023-08-12T01:32:13.421Z,99.92
2023-08-12T01:32:55.165Z,100.00
2023-08-12T01:33:39.611Z,100.00
2023-08-12T01:34:18.668Z,99.89
2023-08-12T01:34:58.670Z,100.00
2023-08-12T01:35:37.193Z,100.00
2023-08-12T01:36:13.761Z,100.00
2023-08-12T01:36:50.705Z,99.91
2023-08-12T01:37:26.313Z,100.00
2023-08-12T01:38:03.692Z,100.00
2023-08-12T01:38:40.858Z,100.00
2023-08-12T01:39:13.456Z,100.00
2023-08-12T01:39:48.036Z,100.00
2023-08-12T01:40:20.896Z,100.00
2023-08-12T01:40:54.903Z,100.00
2023-08-12T01:41:27.551Z,99.99
2023-08-12T01:42:00.536Z,100.00
2023-08-12T01:42:34.923Z,100.00
2023-08-12T01:43:07.226Z,100.00
2023-08-12T01:43:40.286Z,99.71
2023-08-12T01:44:12.865Z,99.60
2023-08-12T01:44:45.059Z,99.79
2023-08-12T01:45:19.078Z,99.17
2023-08-12T01:45:51.393Z,98.84
2023-08-12T01:46:23.673Z,98.77
2023-08-12T01:46:56.038Z,98.78
2023-08-12T01:47:28.300Z,98.64
2023-08-12T01:48:00.510Z,98.86
2023-08-12T01:48:32.679Z,98.58
2023-08-12T01:49:05.184Z,98.24
2023-08-12T01:49:37.237Z,97.93
2023-08-12T01:50:10.034Z,97.78
2023-08-12T01:50:42.121Z,98.06
2023-08-12T01:51:14.156Z,97.58
2023-08-12T01:51:46.238Z,97.65
2023-08-12T01:52:18.335Z,97.46
2023-08-12T01:52:50.369Z,97.31
2023-08-12T01:53:22.472Z,97.21
2023-08-12T01:53:55.959Z,97.14
2023-08-12T01:54:28.025Z,97.12
2023-08-12T01:55:00.200Z,96.77
2023-08-12T01:55:32.319Z,96.41
2023-08-12T01:56:04.653Z,97.02
2023-08-12T01:56:36.713Z,96.76
2023-08-12T01:57:08.902Z,96.89
2023-08-12T01:57:41.310Z,96.79
2023-08-12T01:58:13.359Z,96.25
2023-08-12T01:58:45.486Z,96.26
2023-08-12T01:59:17.555Z,95.89
2023-08-12T01:59:49.688Z,96.11
2023-08-12T02:00:21.840Z,95.78
2023-08-12T02:00:53.956Z,96.01
2023-08-12T02:01:26.047Z,95.74
2023-08-12T02:01:58.078Z,96.02
2023-08-12T02:02:30.249Z,96.29
2023-08-12T02:03:02.529Z,95.26
2023-08-12T02:03:34.746Z,95.40
2023-08-12T02:04:07.152Z,95.50
2023-08-12T02:04:40.108Z,95.37
2023-08-12T02:05:12.166Z,95.37
2023-08-12T02:05:44.140Z,94.87
2023-08-12T02:06:16.179Z,95.38
2023-08-12T02:06:48.228Z,95.45
2023-08-12T02:07:20.235Z,95.50
2023-08-12T02:07:52.387Z,94.82
2023-08-12T02:08:24.518Z,95.13
2023-08-12T02:08:58.035Z,95.13
2023-08-12T02:09:30.126Z,95.40
2023-08-12T02:10:02.234Z,94.83
2023-08-12T02:10:34.309Z,95.12
2023-08-12T02:11:06.377Z,94.85
2023-08-12T02:11:38.528Z,94.52
2023-08-12T02:12:10.833Z,94.79
2023-08-12T02:12:42.894Z,95.06
2023-08-12T02:13:14.892Z,94.64
2023-08-12T02:13:46.918Z,94.64
2023-08-12T02:14:18.893Z,94.83
2023-08-12T02:14:50.887Z,94.55
2023-08-12T02:15:22.934Z,94.58
2023-08-12T02:15:55.007Z,94.80
2023-08-12T02:16:27.155Z,94.89
2023-08-12T02:16:59.280Z,95.23
2023-08-12T02:17:31.293Z,95.57
2023-08-12T02:18:03.703Z,95.78
2023-08-12T02:18:35.776Z,95.76
2023-08-12T02:19:08.025Z,96.29
2023-08-12T02:19:40.074Z,96.06
2023-08-12T02:20:12.571Z,96.29
2023-08-12T02:20:44.593Z,96.54
2023-08-12T02:21:16.600Z,96.50
2023-08-12T02:21:48.620Z,96.28
2023-08-12T02:22:20.660Z,96.40
2023-08-12T02:22:52.866Z,97.01
2023-08-12T02:23:24.976Z,96.20
2023-08-12T02:23:58.745Z,96.51
2023-08-12T02:24:30.852Z,96.23
2023-08-12T02:25:02.985Z,96.33
2023-08-12T02:25:35.046Z,96.11
2023-08-12T02:26:07.125Z,96.01
2023-08-12T02:26:39.525Z,96.56
2023-08-12T02:27:11.781Z,96.41
2023-08-12T02:27:43.944Z,96.09
2023-08-12T02:28:15.950Z,96.15
2023-08-12T02:28:48.046Z,96.32
2023-08-12T02:29:20.079Z,96.08
2023-08-12T02:29:52.241Z,96.02
2023-08-12T02:30:24.413Z,96.21
2023-08-12T02:30:56.418Z,96.08
2023-08-12T02:31:28.458Z,95.92
2023-08-12T02:32:00.622Z,95.80
2023-08-12T02:32:32.912Z,95.49
2023-08-12T02:33:05.435Z,95.51
2023-08-12T02:33:37.989Z,95.39
2023-08-12T02:34:09.983Z,96.21
2023-08-12T02:34:42.237Z,95.54
2023-08-12T02:35:14.349Z,95.24
2023-08-12T02:35:46.344Z,95.43
2023-08-12T02:36:18.365Z,95.49
2023-08-12T02:36:50.378Z,95.42
2023-08-12T02:37:22.390Z,95.69
2023-08-12T02:37:54.399Z,95.17
2023-08-12T02:38:26.403Z,95.54
2023-08-12T02:38:59.828Z,95.52
2023-08-12T02:39:31.880Z,94.91
2023-08-12T02:40:05.293Z,95.40
2023-08-12T02:40:37.281Z,95.28
2023-08-12T02:41:09.340Z,95.00
2023-08-12T02:41:41.390Z,95.24
2023-08-12T02:42:13.408Z,95.05
2023-08-12T02:42:45.485Z,95.11
2023-08-12T02:43:17.872Z,94.91
2023-08-12T02:43:49.969Z,95.03
2023-08-12T02:44:22.042Z,94.69
2023-08-12T02:44:54.017Z,94.73
2023-08-12T02:45:26.094Z,95.13
2023-08-12T02:45:58.165Z,94.74
2023-08-12T02:46:30.290Z,94.24
2023-08-12T02:47:02.453Z,94.77
2023-08-12T02:47:34.591Z,94.73
2023-08-12T02:48:07.343Z,95.03
2023-08-12T02:48:39.454Z,94.51
2023-08-12T02:49:11.494Z,94.60
2023-08-12T02:49:43.772Z,94.75
2023-08-12T02:50:15.837Z,94.71
2023-08-12T02:50:48.694Z,94.34
2023-08-12T02:51:23.674Z,94.35
2023-08-12T02:51:55.747Z,94.21
2023-08-12T02:52:27.798Z,94.58
2023-08-12T02:52:59.875Z,93.87
2023-08-12T02:53:31.951Z,94.22
2023-08-12T02:54:05.882Z,94.11
2023-08-12T02:54:38.310Z,93.89
2023-08-12T02:55:10.357Z,94.11
2023-08-12T02:55:42.421Z,94.02
2023-08-12T02:56:14.500Z,94.46
2023-08-12T02:56:46.491Z,93.86
2023-08-12T02:57:18.604Z,94.57
2023-08-12T02:57:50.596Z,94.20
2023-08-12T02:58:22.650Z,94.10
2023-08-12T02:58:54.733Z,94.37
2023-08-12T02:59:26.781Z,94.52
2023-08-12T02:59:58.905Z,94.67
2023-08-12T03:00:31.391Z,94.59
2023-08-12T03:01:04.501Z,94.74
2023-08-12T03:01:36.579Z,94.99
2023-08-12T03:02:08.969Z,95.08
2023-08-12T03:02:43.639Z,95.16
2023-08-12T03:03:15.892Z,94.65
2023-08-12T03:03:48.293Z,95.05
2023-08-12T03:04:20.332Z,95.79
2023-08-12T03:04:52.430Z,95.39
2023-08-12T03:05:24.541Z,95.50
2023-08-12T03:05:56.581Z,96.06
2023-08-12T03:06:28.753Z,95.69
2023-08-12T03:07:00.771Z,95.66
2023-08-12T03:07:32.780Z,95.99
2023-08-12T03:08:05.725Z,96.55
2023-08-12T03:08:37.752Z,96.07
2023-08-12T03:09:11.229Z,95.91
2023-08-12T03:09:43.278Z,95.90
2023-08-12T03:10:15.333Z,95.80
2023-08-12T03:10:47.388Z,95.81
2023-08-12T03:11:19.453Z,96.13
2023-08-12T03:11:51.499Z,96.23
2023-08-12T03:12:23.611Z,96.61
2023-08-12T03:12:55.684Z,96.60
2023-08-12T03:13:28.231Z,96.56
2023-08-12T03:14:00.344Z,96.88
2023-08-12T03:14:32.559Z,96.71
2023-08-12T03:15:06.128Z,96.28
2023-08-12T03:15:40.414Z,97.01
2023-08-12T03:16:13.525Z,96.25
2023-08-12T03:16:45.836Z,97.10
2023-08-12T03:17:17.841Z,97.00
2023-08-12T03:17:49.954Z,96.88
2023-08-12T03:18:22.051Z,96.59
2023-08-12T03:18:54.235Z,97.20
2023-08-12T03:19:26.317Z,97.12
2023-08-12T03:19:58.632Z,96.98
2023-08-12T03:20:30.673Z,97.21
2023-08-12T03:21:07.025Z,97.36
2023-08-12T03:21:39.079Z,98.15
2023-08-12T03:22:11.099Z,98.05
2023-08-12T03:22:43.167Z,98.48
2023-08-12T03:23:15.621Z,99.42
2023-08-12T03:23:47.702Z,98.99
2023-08-12T03:24:21.118Z,98.64
2023-08-12T03:24:53.153Z,99.08
2023-08-12T03:25:25.170Z,98.60
2023-08-12T03:25:57.242Z,98.41
2023-08-12T03:26:29.339Z,99.01
2023-08-12T03:27:01.432Z,98.81
2023-08-12T03:27:33.577Z,99.14
2023-08-12T03:28:05.851Z,99.35
2023-08-12T03:28:37.847Z,99.43
2023-08-12T03:29:09.817Z,99.74
2023-08-12T03:29:41.891Z,99.55
2023-08-12T03:30:14.246Z,99.66
2023-08-12T03:30:51.655Z,99.93
2023-08-12T03:31:23.714Z,99.92
2023-08-12T03:31:55.844Z,99.97
2023-08-12T03:32:28.044Z,100.00
2023-08-12T03:33:00.206Z,99.64
2023-08-12T03:33:32.417Z,99.55
2023-08-12T03:34:04.617Z,99.21
2023-08-12T03:34:36.675Z,99.74
2023-08-12T03:35:09.359Z,99.69
2023-08-12T03:35:45.499Z,100.00
2023-08-12T03:36:17.488Z,99.50
2023-08-12T03:36:49.532Z,99.46
2023-08-12T03:37:21.567Z,99.18
2023-08-12T03:37:53.595Z,99.17
2023-08-12T03:38:25.704Z,98.64
2023-08-12T03:38:57.710Z,99.37
2023-08-12T03:39:31.227Z,99.70
2023-08-12T03:40:03.588Z,99.39
2023-08-12T03:40:39.172Z,99.84
2023-08-12T03:41:11.178Z,99.45
2023-08-12T03:41:43.742Z,99.36
2023-08-12T03:42:15.747Z,99.68
2023-08-12T03:42:47.799Z,99.18
2023-08-12T03:43:19.872Z,99.43
2023-08-12T03:43:51.853Z,98.86
2023-08-12T03:44:23.892Z,98.61
2023-08-12T03:44:55.953Z,98.72
2023-08-12T03:45:28.086Z,98.58
2023-08-12T03:46:00.211Z,98.75
2023-08-12T03:46:32.380Z,98.31
2023-08-12T03:47:04.772Z,98.50
2023-08-12T03:47:36.855Z,99.11
2023-08-12T03:48:09.098Z,99.04
2023-08-12T03:48:41.213Z,98.85
2023-08-12T03:49:13.287Z,98.84
2023-08-12T03:49:45.380Z,99.22
2023-08-12T03:50:17.588Z,98.48
2023-08-12T03:50:50.244Z,98.57
2023-08-12T03:51:22.354Z,98.88
2023-08-12T03:51:54.449Z,98.49
2023-08-12T03:52:26.502Z,98.45
2023-08-12T03:52:58.503Z,98.62
2023-08-12T03:53:30.548Z,98.50
2023-08-12T03:54:02.636Z,98.40
2023-08-12T03:54:36.030Z,98.19
2023-08-12T03:55:08.875Z,98.40
2023-08-12T03:55:40.966Z,97.92
2023-08-12T03:56:13.014Z,97.78
2023-08-12T03:56:45.241Z,97.66
2023-08-12T03:57:17.248Z,98.23
2023-08-12T03:57:49.234Z,97.67
2023-08-12T03:58:21.237Z,98.03
2023-08-12T03:58:53.341Z,97.65
2023-08-12T03:59:25.421Z,97.49
2023-08-12T03:59:57.481Z,97.93
2023-08-12T04:00:29.839Z,97.27
2023-08-12T04:01:01.907Z,97.48
2023-08-12T04:01:33.934Z,97.15
2023-08-12T04:02:05.966Z,97.60
2023-08-12T04:02:37.966Z,97.76
2023-08-12T04:03:10.007Z,97.20
2023-08-12T04:03:42.189Z,97.49
2023-08-12T04:04:14.793Z,96.53
2023-08-12T04:04:46.906Z,97.13
2023-08-12T04:05:18.981Z,96.76
2023-08-12T04:05:51.490Z,96.71
2023-08-12T04:06:23.504Z,96.49
2023-08-12T04:06:55.524Z,96.55
2023-08-12T04:07:27.536Z,96.12
2023-08-12T04:07:59.749Z,95.62
2023-08-12T04:08:31.730Z,95.79
2023-08-12T04:09:03.947Z,95.70
2023-08-12T04:09:37.325Z,95.52
2023-08-12T04:10:10.225Z,95.27
2023-08-12T04:10:49.067Z,95.47
2023-08-12T04:11:21.198Z,94.83
2023-08-12T04:11:53.241Z,95.16
2023-08-12T04:12:25.264Z,94.84
2023-08-12T04:12:57.308Z,95.17
2023-08-12T04:13:29.353Z,95.51
2023-08-12T04:14:01.347Z,95.40
2023-08-12T04:14:33.430Z,95.81
2023-08-12T04:15:06.315Z,95.24
2023-08-12T04:15:38.505Z,95.12
2023-08-12T04:16:10.519Z,95.37
2023-08-12T04:16:42.649Z,95.11
2023-08-12T04:17:14.846Z,95.44
2023-08-12T04:17:47.057Z,96.06
2023-08-12T04:18:19.199Z,96.02
2023-08-12T04:18:51.235Z,94.69
2023-08-12T04:19:23.237Z,95.02
2023-08-12T04:19:55.312Z,94.78
2023-08-12T04:20:27.329Z,94.78
2023-08-12T04:20:59.441Z,94.28
2023-08-12T04:21:31.690Z,94.32
2023-08-12T04:22:03.952Z,94.02
2023-08-12T04:22:36.176Z,94.15
2023-08-12T04:23:08.331Z,93.96
2023-08-12T04:23:40.626Z,94.48
2023-08-12T04:24:12.708Z,93.68
2023-08-12T04:24:46.119Z,93.22
2023-08-12T04:25:18.224Z,93.65
2023-08-12T04:25:50.681Z,93.66
2023-08-12T04:26:22.854Z,92.82
2023-08-12T04:26:54.893Z,93.05
2023-08-12T04:27:27.028Z,93.54
2023-08-12T04:27:59.131Z,93.37
2023-08-12T04:28:31.194Z,93.64
2023-08-12T04:29:03.302Z,93.91
2023-08-12T04:29:36.777Z,93.95
2023-08-12T04:30:10.009Z,95.06
2023-08-12T04:30:43.200Z,95.48
2023-08-12T04:31:15.603Z,95.49
2023-08-12T04:31:47.753Z,94.79
2023-08-12T04:32:19.745Z,94.35
2023-08-12T04:32:51.860Z,94.37
2023-08-12T04:33:24.980Z,94.52
2023-08-12T04:33:56.983Z,94.14
2023-08-12T04:34:29.046Z,94.34
2023-08-12T04:35:01.020Z,93.99
2023-08-12T04:35:33.375Z,93.52
2023-08-12T04:36:06.203Z,93.70
2023-08-12T04:36:38.265Z,93.30
2023-08-12T04:37:10.500Z,93.26
2023-08-12T04:37:42.826Z,93.72
2023-08-12T04:38:14.992Z,93.72
2023-08-12T04:38:47.069Z,93.70
2023-08-12T04:39:19.168Z,93.91
2023-08-12T04:39:52.584Z,93.70
2023-08-12T04:40:24.607Z,93.83
2023-08-12T04:40:56.668Z,93.70
2023-08-12T04:41:28.705Z,93.91
2023-08-12T04:42:00.782Z,94.37
2023-08-12T04:42:32.853Z,94.10
2023-08-12T04:43:05.141Z,94.09
2023-08-12T04:43:37.250Z,94.08
2023-08-12T04:44:09.329Z,93.58
2023-08-12T04:44:41.400Z,93.64
2023-08-12T04:45:13.387Z,93.10
2023-08-12T04:45:46.684Z,92.54
2023-08-12T04:46:19.104Z,92.75
2023-08-12T04:46:51.251Z,92.17
2023-08-12T04:47:23.313Z,92.00
2023-08-12T04:47:56.405Z,92.52
2023-08-12T04:48:28.536Z,92.44
2023-08-12T04:49:00.672Z,92.51
2023-08-12T04:49:32.740Z,92.69
2023-08-12T04:50:05.441Z,92.35
2023-08-12T04:50:37.538Z,92.34
2023-08-12T04:51:09.604Z,92.31
2023-08-12T04:51:41.651Z,92.28
2023-08-12T04:52:13.684Z,91.94
2023-08-12T04:52:45.812Z,91.72
2023-08-12T04:53:17.985Z,91.37
2023-08-12T04:53:50.835Z,91.97
2023-08-12T04:54:22.954Z,91.54
2023-08-12T04:54:56.407Z,92.38
2023-08-12T04:55:28.914Z,91.40
2023-08-12T04:56:00.908Z,91.81
2023-08-12T04:56:32.905Z,91.88
2023-08-12T04:57:05.239Z,91.52
2023-08-12T04:57:37.368Z,91.58
2023-08-12T04:58:09.425Z,91.22
2023-08-12T04:58:41.517Z,91.69
2023-08-12T04:59:13.604Z,92.36
2023-08-12T04:59:45.712Z,92.17
2023-08-12T05:00:17.817Z,91.28
2023-08-12T05:00:49.862Z,91.45
2023-08-12T05:01:22.246Z,92.15
2023-08-12T05:02:03.992Z,91.66
2023-08-12T05:02:46.450Z,91.13
2023-08-12T05:03:18.706Z,92.25
2023-08-12T05:03:50.809Z,91.53
2023-08-12T05:04:24.205Z,91.90
2023-08-12T05:04:56.305Z,92.01
2023-08-12T05:05:28.521Z,91.22
2023-08-12T05:06:00.597Z,92.08
2023-08-12T05:06:32.763Z,92.03
2023-08-12T05:07:04.923Z,92.85
2023-08-12T05:07:40.022Z,92.83
2023-08-12T05:08:13.157Z,94.01
2023-08-12T05:08:45.256Z,93.72
2023-08-12T05:09:17.353Z,94.41
2023-08-12T05:09:49.435Z,94.70
2023-08-12T05:10:22.903Z,94.44
2023-08-12T05:10:54.941Z,93.51
2023-08-12T05:11:26.950Z,94.30
2023-08-12T05:11:58.999Z,94.42
2023-08-12T05:12:31.098Z,93.96
2023-08-12T05:13:03.335Z,93.99
2023-08-12T05:13:35.501Z,94.43
2023-08-12T05:14:07.597Z,93.85
2023-08-12T05:14:41.346Z,93.79
2023-08-12T05:15:13.363Z,93.71
2023-08-12T05:15:49.458Z,94.55
2023-08-12T05:16:21.566Z,94.72
2023-08-12T05:16:53.672Z,94.85
2023-08-12T05:17:25.843Z,94.55
2023-08-12T05:17:57.926Z,94.59
2023-08-12T05:18:30.233Z,94.31
2023-08-12T05:19:02.277Z,94.50
2023-08-12T05:19:34.362Z,94.91
2023-08-12T05:20:07.895Z,94.84
2023-08-12T05:20:41.397Z,94.61
2023-08-12T05:21:14.746Z,94.62
2023-08-12T05:21:46.872Z,95.57
2023-08-12T05:22:18.911Z,96.06
2023-08-12T05:22:50.899Z,95.88
2023-08-12T05:23:23.057Z,95.86
2023-08-12T05:23:55.085Z,95.43
2023-08-12T05:24:27.314Z,96.04
2023-08-12T05:25:00.349Z,95.75
2023-08-12T05:25:33.940Z,94.95
2023-08-12T05:27:45.673Z,94.46
2023-08-12T05:28:17.763Z,94.96
2023-08-12T05:28:49.779Z,96.27
2023-08-12T05:29:21.801Z,95.38
2023-08-12T05:29:54.044Z,95.68
2023-08-12T05:30:26.278Z,94.64
2023-08-12T05:30:58.316Z,95.17
2023-08-12T05:31:30.844Z,93.85
2023-08-12T05:32:03.002Z,94.19
2023-08-12T05:32:35.099Z,94.43
2023-08-12T05:33:07.300Z,95.01
2023-08-12T05:33:39.681Z,94.45
2023-08-12T05:34:11.811Z,94.48
2023-08-12T05:34:43.995Z,94.24
2023-08-12T05:35:16.223Z,93.74
2023-08-12T05:35:48.845Z,92.83
2023-08-12T05:36:20.913Z,92.53
2023-08-12T05:36:52.955Z,92.45
2023-08-12T05:37:25.010Z,92.22
2023-08-12T05:37:57.088Z,93.38
2023-08-12T05:38:29.246Z,92.59
2023-08-12T05:39:01.294Z,92.91
2023-08-12T05:39:33.349Z,91.65
2023-08-12T05:40:06.552Z,91.76
2023-08-12T05:40:39.974Z,92.06
2023-08-12T05:41:11.988Z,91.26
2023-08-12T05:41:44.065Z,90.66
2023-08-12T05:42:16.120Z,89.48
2023-08-12T05:42:48.218Z,89.28
2023-08-12T05:43:20.336Z,89.34
2023-08-12T05:43:52.373Z,88.92
2023-08-12T05:44:24.416Z,88.45
2023-08-12T05:44:56.518Z,89.40
2023-08-12T05:45:28.608Z,90.00
2023-08-12T05:46:00.680Z,88.71
2023-08-12T05:46:32.721Z,89.88
2023-08-12T05:47:05.008Z,89.57
2023-08-12T05:47:37.219Z,89.27
2023-08-12T05:48:12.286Z,90.05
2023-08-12T05:48:44.395Z,89.94
2023-08-12T05:49:16.435Z,91.42
2023-08-12T05:49:48.530Z,90.82
2023-08-12T05:50:20.553Z,89.39
2023-08-12T05:50:52.624Z,90.56
2023-08-12T05:51:24.674Z,89.60
2023-08-12T05:51:56.890Z,88.67
2023-08-12T05:52:29.123Z,88.22
2023-08-12T05:53:04.985Z,88.83
2023-08-12T05:53:37.308Z,88.94
2023-08-12T05:54:09.380Z,89.32
2023-08-12T05:54:41.372Z,90.03
2023-08-12T05:55:13.457Z,90.44
2023-08-12T05:55:46.935Z,90.92
2023-08-12T05:56:19.024Z,90.21
2023-08-12T05:56:51.024Z,88.07
2023-08-12T05:57:23.172Z,86.47
2023-08-12T05:57:55.334Z,86.24
2023-08-12T05:58:27.380Z,87.23
2023-08-12T05:58:59.490Z,85.94
2023-08-12T05:59:31.557Z,86.56
2023-08-12T06:00:04.315Z,86.47
2023-08-12T06:00:36.411Z,86.54
2023-08-12T06:01:08.524Z,86.07
2023-08-12T06:01:40.935Z,85.82
2023-08-12T06:02:13.194Z,86.20
2023-08-12T06:02:45.489Z,87.08
2023-08-12T06:03:17.904Z,86.42
2023-08-12T06:03:50.148Z,85.13
2023-08-12T06:04:22.252Z,85.08
2023-08-12T06:04:54.363Z,84.88
2023-08-12T06:05:26.422Z,85.09
2023-08-12T06:05:58.418Z,85.86
2023-08-12T06:06:30.499Z,86.40
2023-08-12T06:07:02.552Z,86.47
2023-08-12T06:07:34.631Z,85.53
2023-08-12T06:08:06.910Z,84.88
2023-08-12T06:08:38.959Z,84.62
2023-08-12T06:09:11.351Z,85.58
2023-08-12T06:09:43.358Z,85.35
2023-08-12T06:10:15.421Z,84.90
2023-08-12T06:10:48.906Z,83.61
2023-08-12T06:11:20.951Z,83.37
2023-08-12T06:11:52.980Z,84.33
2023-08-12T06:12:25.039Z,84.16
2023-08-12T06:12:57.052Z,86.08
2023-08-12T06:13:29.150Z,84.43
2023-08-12T06:14:01.331Z,83.84
2023-08-12T06:14:33.492Z,83.16
2023-08-12T06:15:06.554Z,82.57
2023-08-12T06:15:38.689Z,81.19
2023-08-12T06:16:10.920Z,80.31
2023-08-12T06:16:43.065Z,80.38
2023-08-12T06:17:15.192Z,81.62
2023-08-12T06:17:47.246Z,79.98
2023-08-12T06:18:19.298Z,79.93
2023-08-12T06:18:51.384Z,78.84
2023-08-12T06:19:23.439Z,80.60
2023-08-12T06:19:55.430Z,81.25
2023-08-12T06:20:27.653Z,81.63
2023-08-12T06:20:59.632Z,79.92
2023-08-12T06:21:31.833Z,78.30
2023-08-12T06:22:04.045Z,77.53
2023-08-12T06:22:36.121Z,77.60
2023-08-12T06:23:08.170Z,76.41
2023-08-12T06:23:40.273Z,75.90
2023-08-12T06:24:12.387Z,74.46
2023-08-12T06:24:44.444Z,73.22
2023-08-12T06:25:16.670Z,73.29
2023-08-12T06:25:50.065Z,72.78
2023-08-12T06:26:22.105Z,73.74
2023-08-12T06:26:54.160Z,73.95
2023-08-12T06:27:26.272Z,73.10
2023-08-12T06:27:58.300Z,70.66
2023-08-12T06:28:30.404Z,70.04
2023-08-12T06:29:05.703Z,71.11
2023-08-12T06:29:38.171Z,70.67
2023-08-12T06:30:11.638Z,72.15
2023-08-12T06:30:46.261Z,69.00
2023-08-12T06:31:18.323Z,66.03
2023-08-12T06:31:50.407Z,66.62
2023-08-12T06:32:22.558Z,65.52
2023-08-12T06:32:54.644Z,66.25
2023-08-12T06:33:26.891Z,64.18
2023-08-12T06:33:59.023Z,63.74
2023-08-12T06:34:31.105Z,63.81
2023-08-12T06:35:03.416Z,64.67
2023-08-12T06:35:35.448Z,64.92
2023-08-12T06:36:07.904Z,64.52
2023-08-12T06:36:40.161Z,63.77
2023-08-12T06:37:12.267Z,64.56
2023-08-12T06:37:44.341Z,61.65
2023-08-12T06:38:16.570Z,61.58
2023-08-12T06:38:52.336Z,63.75
2023-08-12T06:39:24.551Z,61.41
2023-08-12T06:39:56.659Z,61.11
2023-08-12T06:40:29.283Z,60.89
2023-08-12T06:41:02.709Z,62.04
2023-08-12T06:41:34.916Z,63.97
2023-08-12T06:42:07.291Z,61.59
2023-08-12T06:42:39.283Z,62.23
2023-08-12T06:43:11.822Z,60.97
2023-08-12T06:43:43.868Z,61.43
2023-08-12T06:44:15.943Z,60.70
2023-08-12T06:44:55.925Z,58.68
2023-08-12T06:45:28.074Z,57.73
2023-08-12T06:46:00.177Z,57.87
2023-08-12T06:46:32.301Z,58.89
2023-08-12T06:47:04.409Z,57.38
2023-08-12T06:47:36.468Z,56.24
2023-08-12T06:48:08.646Z,55.18
2023-08-12T06:48:40.810Z,55.55
2023-08-12T06:49:13.303Z,55.88
2023-08-12T06:49:45.404Z,55.93
2023-08-12T06:50:17.511Z,54.65
2023-08-12T06:50:54.486Z,54.64
2023-08-12T06:51:26.569Z,54.49
2023-08-12T06:51:58.724Z,54.81
2023-08-12T06:52:30.814Z,56.37
2023-08-12T06:53:02.857Z,54.36
2023-08-12T06:53:34.892Z,56.40
2023-08-12T06:54:06.909Z,55.51
2023-08-12T06:54:39.006Z,54.69
2023-08-12T06:55:11.162Z,55.48
2023-08-12T06:55:45.547Z,53.94
2023-08-12T06:56:18.937Z,54.52
2023-08-12T06:56:51.014Z,53.23
2023-08-12T06:57:23.270Z,52.39
2023-08-12T06:57:55.557Z,52.08
2023-08-12T06:58:27.871Z,52.50
2023-08-12T06:58:59.925Z,52.79
2023-08-12T06:59:31.931Z,51.80
2023-08-12T07:00:04.835Z,51.92
2023-08-12T07:00:36.888Z,51.16
2023-08-12T07:01:08.963Z,51.06
2023-08-12T07:01:41.107Z,52.37